createdAt,value
2022-12-29T00:02:23.288Z,4.65
2022-12-29T00:04:52.083Z,4.30
2022-12-29T00:07:20.259Z,4.47
2022-12-29T00:09:48.115Z,4.13
2022-12-29T00:12:16.086Z,4.25
2022-12-29T00:15:02.263Z,4.70
2022-12-29T00:17:30.696Z,5.40
2022-12-29T00:20:17.040Z,4.63
2022-12-29T00:23:04.305Z,4.40
2022-12-29T00:25:50.984Z,4.28
2022-12-29T00:28:37.762Z,4.60
2022-12-29T00:31:31.170Z,4.35
2022-12-29T00:34:17.570Z,4.40
2022-12-29T00:36:46.070Z,5.43
2022-12-29T00:39:36.267Z,4.68
2022-12-29T00:42:32.275Z,4.25
2022-12-29T00:45:00.201Z,4.32
2022-12-29T00:47:28.067Z,4.65
2022-12-29T00:49:56.361Z,4.50
2022-12-29T00:52:24.370Z,4.38
2022-12-29T00:54:52.194Z,4.68
2022-12-29T00:57:20.035Z,4.70
2022-12-29T00:59:47.889Z,5.30
2022-12-29T01:02:17.364Z,4.57
2022-12-29T01:04:48.477Z,5.45
2022-12-29T01:07:17.865Z,4.88
2022-12-29T01:10:05.191Z,4.60
2022-12-29T01:12:46.085Z,4.30
2022-12-29T01:15:16.346Z,4.90
2022-12-29T01:17:44.308Z,4.88
2022-12-29T01:20:12.838Z,4.50
2022-12-29T01:22:40.898Z,4.30
2022-12-29T01:25:09.004Z,4.55
2022-12-29T01:27:39.777Z,4.40
2022-12-29T01:30:08.247Z,5.22
2022-12-29T01:32:36.096Z,4.70
2022-12-29T01:35:04.531Z,4.85
2022-12-29T01:37:32.461Z,5.63
2022-12-29T01:40:00.308Z,4.18
2022-12-29T01:42:28.264Z,5.22
2022-12-29T01:44:57.718Z,4.10
2022-12-29T01:47:28.664Z,4.43
2022-12-29T01:49:59.819Z,4.80
2022-12-29T01:52:31.311Z,5.22
2022-12-29T01:55:00.825Z,4.70
2022-12-29T01:57:37.649Z,4.70
2022-12-29T02:00:12.293Z,5.03
2022-12-29T02:02:55.422Z,4.60
2022-12-29T02:05:37.330Z,4.60
2022-12-29T02:08:05.455Z,4.07
2022-12-29T02:10:37.228Z,4.88
2022-12-29T02:13:05.471Z,4.35
2022-12-29T02:15:58.398Z,4.20
2022-12-29T02:18:34.677Z,4.75
2022-12-29T02:21:34.850Z,4.43
2022-12-29T02:24:17.625Z,4.40
2022-12-29T02:27:24.823Z,3.97
2022-12-29T02:29:55.853Z,4.82
2022-12-29T02:32:49.581Z,4.50
2022-12-29T02:35:51.279Z,4.30
2022-12-29T02:38:49.113Z,4.30
2022-12-29T02:41:43.219Z,4.43
2022-12-29T02:44:25.928Z,4.30
2022-12-29T02:47:15.466Z,3.90
2022-12-29T02:49:49.898Z,4.15
2022-12-29T02:52:23.235Z,4.60
2022-12-29T02:54:51.387Z,4.65
2022-12-29T02:57:22.356Z,5.95
2022-12-29T02:59:59.196Z,4.63
2022-12-29T03:02:36.163Z,3.95
2022-12-29T03:05:16.459Z,4.00
2022-12-29T03:08:03.090Z,3.95
2022-12-29T03:11:03.363Z,5.05
2022-12-29T03:13:50.846Z,4.00
2022-12-29T03:16:29.768Z,4.13
2022-12-29T03:19:16.450Z,4.78
2022-12-29T03:22:16.254Z,4.40
2022-12-29T03:24:53.214Z,4.70
2022-12-29T03:27:28.904Z,4.40
2022-12-29T03:30:03.974Z,4.22
2022-12-29T03:32:41.678Z,5.18
2022-12-29T03:35:14.216Z,4.63
2022-12-29T03:38:04.656Z,3.93
2022-12-29T03:40:35.045Z,4.28
2022-12-29T03:43:04.445Z,4.57
2022-12-29T03:45:35.500Z,4.60
2022-12-29T03:48:04.263Z,5.28
2022-12-29T03:50:33.279Z,4.90
2022-12-29T03:53:01.479Z,4.75
2022-12-29T03:55:29.571Z,4.68
2022-12-29T03:57:58.699Z,4.32
2022-12-29T04:00:48.073Z,4.65
2022-12-29T04:03:16.109Z,4.50
2022-12-29T04:05:46.323Z,4.97
2022-12-29T04:08:14.276Z,4.43
2022-12-29T04:10:42.233Z,5.35
2022-12-29T04:13:10.252Z,4.28
2022-12-29T04:15:38.161Z,4.45
2022-12-29T04:18:06.128Z,5.75
2022-12-29T04:20:54.080Z,4.63
2022-12-29T04:23:22.347Z,4.40
2022-12-29T04:25:50.339Z,5.10
2022-12-29T04:28:18.804Z,4.88
2022-12-29T04:31:10.223Z,5.40
2022-12-29T04:33:41.737Z,4.85
2022-12-29T04:36:10.345Z,4.53
2022-12-29T04:38:39.607Z,4.90
2022-12-29T04:41:07.677Z,6.20
2022-12-29T04:43:37.604Z,5.38
2022-12-29T04:46:36.380Z,5.45
2022-12-29T04:51:50.377Z,4.70
2022-12-29T04:54:19.649Z,5.00
2022-12-29T04:56:55.603Z,4.68
2022-12-29T04:59:23.674Z,5.20
2022-12-29T05:01:55.788Z,5.47
2022-12-29T05:04:24.033Z,4.90
2022-12-29T05:06:52.091Z,5.18
2022-12-29T05:09:20.212Z,4.72
2022-12-29T05:11:48.587Z,4.75
2022-12-29T05:14:16.696Z,5.53
2022-12-29T05:16:47.278Z,5.15
2022-12-29T05:19:15.300Z,6.50
2022-12-29T05:21:43.202Z,4.70
2022-12-29T05:24:12.171Z,4.90
2022-12-29T05:26:40.267Z,4.60
2022-12-29T05:29:27.092Z,5.63
2022-12-29T05:31:55.384Z,4.22
2022-12-29T05:34:23.621Z,5.38
2022-12-29T05:36:52.468Z,5.35
2022-12-29T05:39:20.667Z,4.80
2022-12-29T05:41:54.248Z,4.82
2022-12-29T05:44:51.205Z,4.75
2022-12-29T05:47:33.814Z,5.03
2022-12-29T05:50:25.211Z,5.55
2022-12-29T05:53:12.283Z,4.97
2022-12-29T05:55:46.594Z,4.40
2022-12-29T05:58:18.474Z,4.68
2022-12-29T06:00:46.631Z,5.18
2022-12-29T06:03:14.856Z,5.72
2022-12-29T06:05:45.625Z,4.68
2022-12-29T06:08:16.928Z,5.53
2022-12-29T06:10:45.006Z,5.45
2022-12-29T06:13:13.361Z,7.68
2022-12-29T06:15:44.775Z,9.70
2022-12-29T06:18:19.358Z,5.75
2022-12-29T06:20:49.199Z,9.85
2022-12-29T06:23:19.803Z,7.82
2022-12-29T06:25:51.100Z,8.52
2022-12-29T06:28:20.822Z,6.05
2022-12-29T06:30:49.796Z,5.65
2022-12-29T06:33:19.534Z,11.85
2022-12-29T06:35:49.971Z,12.73
2022-12-29T06:38:17.960Z,14.70
2022-12-29T06:40:46.325Z,14.57
2022-12-29T06:43:46.736Z,17.48
2022-12-29T06:46:44.331Z,17.80
2022-12-29T06:49:12.475Z,12.80
2022-12-29T06:51:40.579Z,11.68
2022-12-29T06:54:08.933Z,10.82
2022-12-29T06:56:36.804Z,11.95
2022-12-29T06:59:04.859Z,14.18
2022-12-29T07:01:33.135Z,9.30
2022-12-29T07:04:01.184Z,8.98
2022-12-29T07:06:29.242Z,8.50
2022-12-29T07:08:58.541Z,16.42
2022-12-29T07:11:26.706Z,9.00
2022-12-29T07:13:54.751Z,8.63
2022-12-29T07:16:22.874Z,11.43
2022-12-29T07:18:51.203Z,11.18
2022-12-29T07:21:19.922Z,9.63
2022-12-29T07:23:48.578Z,8.98
2022-12-29T07:26:19.178Z,7.65
2022-12-29T07:28:47.523Z,10.00
2022-12-29T07:31:18.215Z,9.65
2022-12-29T07:33:47.394Z,11.02
2022-12-29T07:36:19.095Z,7.57
2022-12-29T07:38:47.180Z,9.07
2022-12-29T07:41:15.257Z,7.78
2022-12-29T07:43:43.418Z,7.50
2022-12-29T07:46:54.219Z,5.95
2022-12-29T07:49:21.717Z,8.60
2022-12-29T07:51:49.960Z,10.85
2022-12-29T07:54:20.574Z,8.95
2022-12-29T07:56:48.662Z,10.35
2022-12-29T07:59:16.962Z,11.82
2022-12-29T08:01:45.254Z,6.80
2022-12-29T08:04:13.726Z,8.13
2022-12-29T08:06:41.815Z,8.95
2022-12-29T08:09:16.517Z,8.73
2022-12-29T08:11:46.286Z,8.18
2022-12-29T08:14:14.277Z,6.30
2022-12-29T08:16:42.238Z,7.70
2022-12-29T08:19:13.023Z,9.82
2022-12-29T08:21:41.205Z,6.03
2022-12-29T08:24:10.457Z,5.85
2022-12-29T08:26:38.575Z,5.90
2022-12-29T08:29:06.639Z,6.85
2022-12-29T08:31:34.820Z,8.38
2022-12-29T08:34:04.522Z,6.57
2022-12-29T08:36:32.612Z,7.53
2022-12-29T08:39:00.628Z,7.43
2022-12-29T08:41:29.085Z,8.63
2022-12-29T08:43:57.725Z,9.60
2022-12-29T08:46:25.782Z,11.75
2022-12-29T08:48:55.153Z,6.63
2022-12-29T08:51:25.202Z,7.85
2022-12-29T08:53:54.120Z,9.18
2022-12-29T08:56:24.880Z,10.25
2022-12-29T08:58:56.591Z,11.98
2022-12-29T09:01:25.841Z,11.10
2022-12-29T09:06:44.923Z,9.98
2022-12-29T09:09:13.466Z,9.80
2022-12-29T09:11:42.465Z,8.77
2022-12-29T09:14:10.585Z,9.55
2022-12-29T09:16:38.892Z,7.32
2022-12-29T09:19:07.047Z,13.52
2022-12-29T09:21:35.164Z,9.38
2022-12-29T09:24:03.399Z,8.10
2022-12-29T09:26:31.504Z,11.20
2022-12-29T09:28:59.826Z,8.80
2022-12-29T09:31:27.969Z,14.18
2022-12-29T09:33:56.119Z,11.45
2022-12-29T09:36:24.244Z,13.38
2022-12-29T09:38:54.847Z,15.35
2022-12-29T09:41:54.030Z,13.20
2022-12-29T09:44:30.333Z,11.75
2022-12-29T09:46:59.349Z,8.18
2022-12-29T09:49:50.747Z,12.68
2022-12-29T09:52:30.542Z,9.90
2022-12-29T09:55:10.681Z,11.23
2022-12-29T09:58:02.222Z,7.93
2022-12-29T10:00:58.169Z,10.45
2022-12-29T10:03:37.276Z,7.30
2022-12-29T10:06:21.589Z,8.13
2022-12-29T10:09:12.768Z,7.57
2022-12-29T10:11:57.783Z,9.60
2022-12-29T10:14:55.912Z,7.85
2022-12-29T10:17:42.416Z,10.20
2022-12-29T10:20:34.862Z,11.55
2022-12-29T10:23:19.895Z,7.20
2022-12-29T10:25:48.764Z,10.57
2022-12-29T10:28:23.768Z,7.97
2022-12-29T10:30:54.928Z,8.23
2022-12-29T10:33:28.118Z,9.73
2022-12-29T10:35:56.475Z,9.38
2022-12-29T10:38:28.467Z,9.82
2022-12-29T10:41:06.813Z,17.50
2022-12-29T10:43:52.264Z,8.63
2022-12-29T10:46:29.686Z,11.45
2022-12-29T10:48:57.855Z,9.23
2022-12-29T10:51:32.329Z,9.27
2022-12-29T10:54:12.104Z,11.07
2022-12-29T10:56:53.739Z,6.93
2022-12-29T10:59:32.095Z,8.80
2022-12-29T11:02:11.759Z,10.43
2022-12-29T11:05:17.005Z,6.55
2022-12-29T11:07:47.858Z,8.00
2022-12-29T11:10:36.495Z,7.00
2022-12-29T11:13:26.450Z,8.30
2022-12-29T11:15:54.623Z,8.07
2022-12-29T11:18:41.069Z,13.43
2022-12-29T11:21:28.718Z,9.88
2022-12-29T11:24:03.580Z,9.43
2022-12-29T11:26:34.637Z,12.45
2022-12-29T11:29:23.326Z,9.52
2022-12-29T11:31:55.050Z,8.98
2022-12-29T11:34:36.719Z,10.15
2022-12-29T11:37:52.605Z,10.63
2022-12-29T11:40:22.316Z,9.20
2022-12-29T11:42:53.790Z,7.68
2022-12-29T11:45:30.169Z,6.97
2022-12-29T11:48:20.967Z,7.97
2022-12-29T11:50:55.229Z,6.75
2022-12-29T11:53:41.154Z,8.10
2022-12-29T11:56:21.438Z,10.45
2022-12-29T11:58:51.688Z,7.85
2022-12-29T12:01:39.609Z,13.82
2022-12-29T12:04:18.212Z,8.63
2022-12-29T12:07:10.911Z,8.82
2022-12-29T12:09:44.876Z,9.73
2022-12-29T12:12:28.153Z,8.60
2022-12-29T12:15:02.777Z,11.40
2022-12-29T12:17:56.680Z,26.63
2022-12-29T12:20:46.953Z,24.15
2022-12-29T12:23:23.226Z,37.83
2022-12-29T12:26:17.792Z,29.98
2022-12-29T12:31:36.817Z,26.35
2022-12-29T12:34:12.214Z,24.35
2022-12-29T12:37:03.972Z,24.52
2022-12-29T12:40:01.059Z,20.83
2022-12-29T12:42:41.094Z,23.63
2022-12-29T12:45:31.890Z,22.00
2022-12-29T12:48:31.935Z,18.77
2022-12-29T12:51:17.294Z,23.10
2022-12-29T12:54:12.122Z,24.90
2022-12-29T12:57:04.283Z,19.67
2022-12-29T12:59:51.833Z,20.90
2022-12-29T13:02:32.082Z,19.17
2022-12-29T13:05:27.366Z,20.55
2022-12-29T13:08:32.282Z,21.08
2022-12-29T13:11:02.849Z,22.70
2022-12-29T13:13:59.117Z,18.55
2022-12-29T13:16:27.159Z,19.85
2022-12-29T13:19:07.094Z,14.65
2022-12-29T13:21:42.022Z,17.40
2022-12-29T13:24:29.652Z,15.98
2022-12-29T13:27:22.778Z,16.40
2022-12-29T13:29:55.795Z,15.52
2022-12-29T13:32:58.311Z,16.27
2022-12-29T13:35:57.152Z,13.45
2022-12-29T13:38:36.978Z,13.68
2022-12-29T13:41:20.028Z,12.05
2022-12-29T13:43:52.708Z,12.82
2022-12-29T13:46:30.494Z,16.83
2022-12-29T13:49:08.507Z,17.15
2022-12-29T13:51:39.561Z,12.23
2022-12-29T13:54:16.435Z,14.27
2022-12-29T13:56:57.584Z,22.42
2022-12-29T13:59:41.820Z,11.43
2022-12-29T14:02:34.692Z,12.57
2022-12-29T14:05:23.125Z,14.45
2022-12-29T14:08:06.808Z,12.73
2022-12-29T14:10:46.625Z,15.07
2022-12-29T14:13:18.249Z,12.05
2022-12-29T14:15:56.063Z,11.00
2022-12-29T14:18:45.182Z,11.48
2022-12-29T14:21:28.981Z,9.27
2022-12-29T14:24:37.166Z,10.23
2022-12-29T14:27:11.217Z,11.50
2022-12-29T14:29:42.243Z,9.90
2022-12-29T14:32:33.494Z,24.58
2022-12-29T14:35:22.300Z,11.15
2022-12-29T14:38:26.495Z,9.07
2022-12-29T14:41:44.508Z,8.68
2022-12-29T14:44:22.455Z,9.65
2022-12-29T14:46:59.976Z,8.38
2022-12-29T14:49:34.216Z,8.75
2022-12-29T14:52:26.925Z,10.77
2022-12-29T14:55:01.681Z,8.63
2022-12-29T14:57:38.377Z,9.07
2022-12-29T15:00:19.199Z,8.10
2022-12-29T15:03:10.598Z,7.25
2022-12-29T15:06:09.211Z,7.15
2022-12-29T15:09:04.584Z,8.57
2022-12-29T15:11:52.961Z,12.57
2022-12-29T15:14:38.676Z,12.25
2022-12-29T15:17:29.400Z,14.65
2022-12-29T15:20:00.306Z,12.48
2022-12-29T15:22:29.298Z,19.05
2022-12-29T15:24:58.082Z,8.50
2022-12-29T15:27:27.678Z,9.00
2022-12-29T15:30:03.000Z,10.65
2022-12-29T15:32:44.993Z,11.00
2022-12-29T15:35:24.684Z,7.60
2022-12-29T15:37:52.851Z,10.27
2022-12-29T15:40:34.181Z,7.35
2022-12-29T15:43:24.477Z,8.15
2022-12-29T15:45:54.103Z,7.10
2022-12-29T15:48:26.494Z,8.82
2022-12-29T15:50:55.707Z,8.30
2022-12-29T15:53:30.413Z,10.15
2022-12-29T15:56:04.663Z,7.70
2022-12-29T15:58:42.011Z,12.27
2022-12-29T16:01:19.204Z,12.65
2022-12-29T16:03:48.512Z,8.43
2022-12-29T16:06:31.387Z,6.90
2022-12-29T16:09:00.891Z,13.50
2022-12-29T16:11:38.886Z,8.93
2022-12-29T16:14:17.439Z,7.05
2022-12-29T16:16:47.778Z,8.63
2022-12-29T16:19:31.212Z,6.70
2022-12-29T16:22:00.300Z,8.45
2022-12-29T16:24:36.199Z,8.05
2022-12-29T16:27:20.992Z,15.15
2022-12-29T16:29:53.207Z,11.63
2022-12-29T16:32:26.097Z,10.13
2022-12-29T16:35:31.776Z,9.17
2022-12-29T16:38:34.294Z,7.20
2022-12-29T16:41:04.042Z,10.23
2022-12-29T16:43:42.841Z,7.97
2022-12-29T16:46:31.731Z,11.43
2022-12-29T16:49:00.015Z,6.47
2022-12-29T16:51:37.011Z,6.57
2022-12-29T16:54:05.740Z,9.55
2022-12-29T16:56:36.611Z,8.63
2022-12-29T16:59:19.785Z,10.18
2022-12-29T17:01:48.075Z,14.47
2022-12-29T17:04:17.572Z,12.93
2022-12-29T17:06:45.522Z,8.85
2022-12-29T17:09:27.554Z,12.00
2022-12-29T17:12:05.342Z,8.23
2022-12-29T17:14:38.448Z,7.15
2022-12-29T17:17:16.933Z,8.82
2022-12-29T17:19:59.989Z,10.20
2022-12-29T17:22:30.422Z,9.63
2022-12-29T17:25:01.549Z,7.78
2022-12-29T17:27:49.975Z,8.02
2022-12-29T17:30:26.090Z,6.88
2022-12-29T17:33:02.754Z,15.80
2022-12-29T17:35:30.932Z,9.88
2022-12-29T17:37:59.631Z,8.80
2022-12-29T17:40:29.989Z,6.78
2022-12-29T17:42:59.500Z,8.20
2022-12-29T17:45:32.852Z,5.78
2022-12-29T17:48:02.076Z,5.72
2022-12-29T17:50:31.744Z,7.75
2022-12-29T17:53:05.834Z,8.10
2022-12-29T17:55:38.049Z,6.45
2022-12-29T17:58:25.643Z,5.93
2022-12-29T18:00:57.698Z,6.13
2022-12-29T18:03:32.462Z,7.97
2022-12-29T18:06:01.527Z,6.50
2022-12-29T18:08:29.730Z,8.07
2022-12-29T18:10:59.052Z,5.78
2022-12-29T18:13:40.397Z,8.15
2022-12-29T18:16:13.638Z,7.03
2022-12-29T18:18:41.841Z,8.05
2022-12-29T18:21:19.108Z,7.65
2022-12-29T18:23:48.198Z,6.25
2022-12-29T18:26:25.728Z,6.15
2022-12-29T18:28:59.259Z,7.75
2022-12-29T18:31:32.413Z,8.98
2022-12-29T18:34:03.326Z,6.10
2022-12-29T18:36:31.288Z,7.00
2022-12-29T18:38:59.301Z,6.80
2022-12-29T18:41:29.946Z,5.95
2022-12-29T18:43:58.891Z,8.38
2022-12-29T18:46:27.266Z,5.88
2022-12-29T18:48:55.926Z,6.07
2022-12-29T18:51:25.654Z,6.40
2022-12-29T18:53:54.683Z,7.10
2022-12-29T18:56:24.569Z,6.68
2022-12-29T18:58:53.793Z,6.65
2022-12-29T19:01:26.041Z,6.40
2022-12-29T19:03:54.473Z,5.95
2022-12-29T19:06:22.670Z,6.75
2022-12-29T19:08:50.714Z,7.82
2022-12-29T19:11:18.771Z,6.50
2022-12-29T19:13:49.115Z,7.05
2022-12-29T19:16:21.054Z,6.55
2022-12-29T19:19:07.402Z,6.85
2022-12-29T19:21:37.815Z,6.90
2022-12-29T19:24:06.726Z,5.80
2022-12-29T19:26:37.142Z,4.97
2022-12-29T19:29:07.995Z,5.10
2022-12-29T19:31:39.062Z,5.55
2022-12-29T19:34:07.237Z,6.93
2022-12-29T19:36:35.396Z,5.43
2022-12-29T19:39:03.658Z,5.93
2022-12-29T19:41:32.137Z,5.93
2022-12-29T19:44:01.093Z,6.85
2022-12-29T19:46:29.076Z,7.28
2022-12-29T19:48:59.637Z,6.22
2022-12-29T19:51:28.027Z,7.65
2022-12-29T19:53:56.308Z,6.88
2022-12-29T19:56:24.435Z,6.45
2022-12-29T19:58:52.380Z,6.95
2022-12-29T20:01:22.901Z,6.75
2022-12-29T20:03:52.044Z,6.63
2022-12-29T20:06:20.687Z,6.57
2022-12-29T20:08:49.007Z,6.32
2022-12-29T20:11:18.723Z,6.45
2022-12-29T20:13:47.523Z,6.68
2022-12-29T20:16:18.976Z,6.90
2022-12-29T20:18:48.181Z,7.05
2022-12-29T20:21:21.896Z,6.70
2022-12-29T20:23:53.550Z,6.53
2022-12-29T20:26:24.978Z,7.85
2022-12-29T20:28:53.755Z,5.90
2022-12-29T20:31:26.339Z,6.63
2022-12-29T20:33:55.114Z,6.28
2022-12-29T20:36:27.528Z,6.85
2022-12-29T20:38:56.941Z,7.43
2022-12-29T20:41:25.808Z,5.95
2022-12-29T20:43:54.440Z,6.60
2022-12-29T20:46:28.023Z,7.07
2022-12-29T20:49:00.779Z,6.38
2022-12-29T20:51:59.288Z,6.85
2022-12-29T20:54:19.497Z,6.97
2022-12-29T20:56:48.794Z,6.88
2022-12-29T20:59:27.494Z,5.55
2022-12-29T21:01:57.482Z,6.07
2022-12-29T21:04:26.275Z,7.03
2022-12-29T21:06:54.633Z,6.40
2022-12-29T21:09:23.147Z,5.25
2022-12-29T21:11:51.309Z,7.10
2022-12-29T21:14:19.415Z,6.97
2022-12-29T21:16:47.587Z,6.57
2022-12-29T21:19:16.359Z,7.72
2022-12-29T21:21:44.319Z,5.53
2022-12-29T21:24:12.242Z,6.70
2022-12-29T21:26:40.741Z,5.53
2022-12-29T21:29:08.870Z,6.50
2022-12-29T21:31:37.385Z,7.03
2022-12-29T21:34:06.634Z,5.85
2022-12-29T21:36:35.063Z,6.68
2022-12-29T21:39:03.769Z,6.22
2022-12-29T21:41:32.642Z,7.13
2022-12-29T21:44:24.672Z,6.07
2022-12-29T21:46:52.800Z,6.28
2022-12-29T21:49:21.689Z,6.13
2022-12-29T21:51:56.049Z,6.18
2022-12-29T21:54:48.498Z,5.65
2022-12-29T21:57:37.510Z,6.25
2022-12-29T22:00:26.054Z,7.90
2022-12-29T22:03:21.988Z,5.65
2022-12-29T22:06:10.914Z,6.75
2022-12-29T22:08:58.599Z,8.45
2022-12-29T22:11:44.826Z,5.78
2022-12-29T22:14:12.756Z,6.70
2022-12-29T22:16:40.635Z,5.82
2022-12-29T22:19:09.004Z,6.78
2022-12-29T22:21:36.901Z,6.93
2022-12-29T22:24:05.087Z,6.82
2022-12-29T22:26:32.973Z,6.80
2022-12-29T22:29:01.068Z,5.60
2022-12-29T22:31:32.773Z,7.10
2022-12-29T22:34:03.314Z,5.20
2022-12-29T22:36:32.480Z,6.07
2022-12-29T22:39:00.521Z,5.80
2022-12-29T22:41:28.443Z,6.70
2022-12-29T22:43:56.683Z,6.15
2022-12-29T22:46:24.743Z,6.72
2022-12-29T22:48:52.769Z,7.07
2022-12-29T22:51:20.789Z,6.47
2022-12-29T22:53:50.021Z,5.80
2022-12-29T22:56:18.426Z,5.93
2022-12-29T22:58:48.177Z,5.93
2022-12-29T23:01:18.441Z,5.95
2022-12-29T23:03:46.538Z,6.45
2022-12-29T23:06:16.877Z,6.15
2022-12-29T23:08:45.439Z,5.72
2022-12-29T23:11:13.749Z,6.25
2022-12-29T23:13:44.695Z,6.03
2022-12-29T23:16:13.225Z,6.22
2022-12-29T23:18:41.554Z,5.75
2022-12-29T23:21:10.237Z,5.75
2022-12-29T23:23:56.465Z,6.03
2022-12-29T23:26:28.934Z,6.30
2022-12-29T23:29:00.445Z,7.20
2022-12-29T23:31:29.851Z,5.60
2022-12-29T23:33:59.137Z,5.75
2022-12-29T23:36:28.100Z,5.75
2022-12-29T23:38:57.079Z,5.93
2022-12-29T23:41:25.763Z,6.18
2022-12-29T23:43:53.709Z,5.55
2022-12-29T23:46:24.609Z,5.78
2022-12-29T23:48:53.046Z,5.90
2022-12-29T23:51:21.149Z,5.65
2022-12-29T23:53:49.373Z,5.90
2022-12-29T23:56:21.769Z,5.68
2022-12-29T23:58:51.404Z,5.93
